Weather at Bocca Airport

Public forecast

Using degrees Celsius for public forecast. Weather courtesy of forecast.io.

Closest aviation weather report (METAR) to Bocca Airport

Closest report is Rosario Islas Malvinas International Airport, 85.7 nm (158.6 km) SE.

2024/07/19 07:00 (retrieved 1 hour ago)

SAAR 190700Z 12004KT CAVOK 13/11 Q1020

Closest aviation forecast (TAF) to Bocca Airport

Closest forecast is Rosario Islas Malvinas International Airport, 85.7 nm (158.6 km) SE.

2024/07/19 06:00 (retrieved 2 hours ago)

TAF SAAR 190500Z 1906/2006 18005KT CAVOK TX16/1917Z TN06/2006Z PROB30 1908/1911 5000 BR SCT040 BECMG 1912/1914 16015KT 9999 SCT030 BKN040 PROB30 TEMPO 1917/1921 16015G30KT 7000 RA SCT020 OVC040